Time;durP1;ratioP1;P1;durP2;ratioP2;P2;SDS_P1;SDS_P2;PMS_P1;PMS_P2;Temp;Humidity;BMP_temperature;BMP_pressure;BME280_temperature;BME280_humidity;BME280_pressure;Samples;Min_cycle;Max_cycle;Signal;HPM_P1;HPM_P2
2022/11/18 00:01:23;;;;;;;;;;;;;;;19.90;59.82;95561.06;5132516;28;19921;-38
2022/11/18 00:03:49;;;;;;;;;;;;;;;19.88;59.70;95558.81;5132631;28;19936;-35
2022/11/18 00:06:15;;;;;;;;;;;;;;;19.87;59.78;95545.56;5132476;28;19912;-36
2022/11/18 00:08:41;;;;;;;;;;;;;;;19.86;59.80;95544.06;5132214;28;19911;-37
2022/11/18 00:11:08;;;;;;;;;;;;;;;19.82;60.08;95533.31;5132457;28;19914;-35
2022/11/18 00:16:17;;;;;;;;;;;;;;;19.86;60.03;95527.53;5132622;28;19922;-35
2022/11/18 00:18:42;;;;;;;;;;;;;;;19.87;59.95;95516.03;5132560;28;19907;-35
2022/11/18 00:21:09;;;;;;;;;;;;;;;19.79;60.32;95514.31;5132599;28;19917;-34
2022/11/18 00:23:34;;;;;;;;;;;;;;;19.86;59.72;95509.03;5143845;27;19938;-35
2022/11/18 00:26:02;;;;;;;;;;;;;;;19.87;59.95;95499.53;5153489;27;20345;-35
2022/11/18 00:28:28;;;;;;;;;;;;;;;19.86;60.11;95505.53;5153350;27;19911;-35
2022/11/18 00:30:58;;;;;;;;;;;;;;;19.80;60.61;95510.31;5153206;27;19955;-36
2022/11/18 00:33:24;;;;;;;;;;;;;;;19.76;60.73;95507.84;5153077;27;19907;-35
2022/11/18 00:35:53;;;;;;;;;;;;;;;19.78;60.88;95488.09;5153205;27;19919;-35
2022/11/18 00:38:18;;;;;;;;;;;;;;;19.73;60.64;95486.84;5153106;27;19942;-35
2022/11/18 00:40:44;;;;;;;;;;;;;;;19.81;60.46;95492.53;5153159;27;19961;-35
2022/11/18 00:43:09;;;;;;;;;;;;;;;19.82;60.28;95491.28;5152934;27;20327;-35
2022/11/18 00:45:34;;;;;;;;;;;;;;;19.84;60.24;95475.03;5152832;27;19914;-36
2022/11/18 00:48:00;;;;;;;;;;;;;;;19.86;60.16;95478.03;5153286;27;19954;-35
2022/11/18 00:50:25;;;;;;;;;;;;;;;19.82;60.65;95480.28;5151259;27;19959;-35
2022/11/18 00:52:50;;;;;;;;;;;;;;;19.81;60.37;95484.28;5152982;27;19911;-34
2022/11/18 00:55:16;;;;;;;;;;;;;;;19.83;60.55;95468.03;5153063;27;19911;-36
2022/11/18 00:57:41;;;;;;;;;;;;;;;19.78;60.93;95474.31;5152690;27;20363;-35
2022/11/18 01:00:07;;;;;;;;;;;;;;;19.70;60.89;95469.34;5152994;27;19917;-34
2022/11/18 01:02:32;;;;;;;;;;;;;;;19.72;61.20;95458.59;5153074;27;19907;-35
2022/11/18 01:04:57;;;;;;;;;;;;;;;19.72;60.86;95453.09;5133936;27;20315;-35
2022/11/18 01:07:23;;;;;;;;;;;;;;;19.75;60.63;95451.31;5157255;27;19907;-35
2022/11/18 01:09:48;;;;;;;;;;;;;;;19.75;60.96;95445.09;5158566;27;20046;-37
2022/11/18 01:14:57;;;;;;;;;;;;;;;19.76;60.78;95425.31;5158557;27;20279;-35
2022/11/18 01:17:23;;;;;;;;;;;;;;;19.67;61.45;95434.59;5158402;27;19907;-35
2022/11/18 01:19:48;;;;;;;;;;;;;;;19.67;61.46;95434.59;5158572;27;20033;-36
2022/11/18 01:22:13;;;;;;;;;;;;;;;19.66;61.24;95446.88;5158401;27;20381;-35
2022/11/18 01:24:39;;;;;;;;;;;;;;;19.72;61.20;95444.84;5158141;27;19922;-35
2022/11/18 01:27:04;;;;;;;;;;;;;;;19.69;61.45;95432.09;5158430;27;20255;-35
2022/11/18 01:29:29;;;;;;;;;;;;;;;19.63;61.64;95434.16;5158338;27;19962;-36
2022/11/18 01:31:55;;;;;;;;;;;;;;;19.70;61.41;95430.84;5139243;27;19911;-35
2022/11/18 01:34:20;;;;;;;;;;;;;;;19.68;61.33;95413.34;5158097;27;19911;-35
2022/11/18 01:36:45;;;;;;;;;;;;;;;19.70;61.10;95408.84;5156218;27;19907;-34
2022/11/18 01:39:11;;;;;;;;;;;;;;;19.73;61.22;95405.06;5137213;27;19907;-35
2022/11/18 01:41:36;;;;;;;;;;;;;;;19.72;61.19;95397.31;5137187;27;19938;-37
2022/11/18 01:44:03;;;;;;;;;;;;;;;19.65;61.47;95403.41;5137247;27;19914;-35
2022/11/18 01:46:30;;;;;;;;;;;;;;;19.63;61.40;95394.91;5137018;27;20002;-35
2022/11/18 01:48:58;;;;;;;;;;;;;;;19.68;61.42;95394.84;5137176;27;20350;-36
2022/11/18 01:51:30;;;;;;;;;;;;;;;19.74;61.05;95389.31;5137005;27;19907;-35
2022/11/18 01:54:07;;;;;;;;;;;;;;;19.59;61.92;95395.16;5137042;27;20275;-35
2022/11/18 01:56:38;;;;;;;;;;;;;;;19.66;61.56;95394.59;5118742;27;19911;-35
2022/11/18 01:59:10;;;;;;;;;;;;;;;19.66;61.91;95386.34;5137269;27;20259;-35
2022/11/18 02:01:35;;;;;;;;;;;;;;;19.62;61.70;95394.16;5137085;27;20279;-36
2022/11/18 02:04:01;;;;;;;;;;;;;;;19.65;61.92;95390.38;5137109;27;19908;-35
2022/11/18 02:06:26;;;;;;;;;;;;;;;19.61;61.85;95403.66;5136883;27;20286;-35
2022/11/18 02:08:51;;;;;;;;;;;;;;;19.63;61.87;95394.91;5136709;27;19907;-35
2022/11/18 02:14:02;;;;;;;;;;;;;;;19.55;62.47;95375.44;5136619;27;19914;-35
2022/11/18 02:16:48;;;;;;;;;;;;;;;19.55;62.29;95378.19;5136582;27;19907;-35
2022/11/18 02:19:29;;;;;;;;;;;;;;;19.47;62.52;95360.72;5118404;27;20382;-36
2022/11/18 02:21:54;;;;;;;;;;;;;;;19.49;62.62;95380.25;5136301;27;19907;-35
2022/11/18 02:24:28;;;;;;;;;;;;;;;19.56;62.58;95368.69;5136532;27;19922;-35
2022/11/18 02:26:54;;;;;;;;;;;;;;;19.46;63.26;95364.72;5156891;27;19950;-36
2022/11/18 02:29:25;;;;;;;;;;;;;;;19.51;62.58;95368.72;5156936;27;20013;-35
2022/11/18 02:32:03;;;;;;;;;;;;;;;19.55;62.55;95356.19;5156991;27;19939;-35
2022/11/18 02:34:38;;;;;;;;;;;;;;;19.35;63.26;95340.06;5156895;27;19911;-35
2022/11/18 02:37:10;;;;;;;;;;;;;;;19.53;62.72;95360.72;5156769;27;19907;-35
2022/11/18 02:39:38;;;;;;;;;;;;;;;19.44;63.31;95361.00;5156782;27;20001;-35
2022/11/18 02:42:06;;;;;;;;;;;;;;;19.56;62.58;95360.44;5156692;27;19907;-34
2022/11/18 02:44:34;;;;;;;;;;;;;;;19.56;62.74;95351.44;5156622;27;20358;-37
2022/11/18 02:47:02;;;;;;;;;;;;;;;19.60;62.27;95373.91;5156802;27;19997;-36
2022/11/18 02:49:48;;;;;;;;;;;;;;;19.59;62.40;95364.91;5156726;27;19907;-35
2022/11/18 02:52:15;;;;;;;;;;;;;;;19.58;62.17;95365.41;5156892;27;19906;-35
2022/11/18 02:54:43;;;;;;;;;;;;;;;19.46;62.89;95363.97;5156626;27;19994;-35
2022/11/18 02:57:09;;;;;;;;;;;;;;;19.49;62.72;95365.75;5156519;27;20248;-35
2022/11/18 02:59:34;;;;;;;;;;;;;;;19.62;62.05;95372.16;5156517;27;19914;-35
2022/11/18 03:01:59;;;;;;;;;;;;;;;19.43;63.00;95354.75;5156356;27;19907;-35
2022/11/18 03:04:26;;;;;;;;;;;;;;;19.55;62.50;95369.19;5155233;27;20055;-35
2022/11/18 03:06:57;;;;;;;;;;;;;;;19.59;62.39;95369.66;5154073;27;19951;-36
2022/11/18 03:09:30;;;;;;;;;;;;;;;19.60;62.11;95352.66;5155484;27;19907;-35
2022/11/18 03:11:58;;;;;;;;;;;;;;;19.56;62.60;95349.44;5156111;27;19906;-36
2022/11/18 03:14:36;;;;;;;;;;;;;;;19.59;62.41;95345.66;5156172;27;19961;-35
2022/11/18 03:17:10;;;;;;;;;;;;;;;19.62;62.09;95339.16;5156131;27;19959;-34
2022/11/18 03:20:10;;;;;;;;;;;;;;;19.55;62.28;95339.69;5156103;27;19906;-35
2022/11/18 03:22:51;;;;;;;;;;;;;;;19.61;62.05;95347.91;5052196;28;19915;-35
2022/11/18 03:25:39;;;;;;;;;;;;;;;19.60;62.14;95349.16;5051921;28;19967;-35
2022/11/18 03:28:04;;;;;;;;;;;;;;;19.62;61.78;95352.91;5041435;28;19948;-37
2022/11/18 03:30:30;;;;;;;;;;;;;;;19.61;62.12;95347.91;5051468;28;19966;-37
2022/11/18 03:33:02;;;;;;;;;;;;;;;19.60;62.14;95341.66;5049003;28;19996;-35
2022/11/18 03:35:30;;;;;;;;;;;;;;;19.56;62.37;95332.94;5051893;28;20386;-36
2022/11/18 03:37:58;;;;;;;;;;;;;;;19.58;62.33;95348.91;5051819;28;19908;-35
2022/11/18 03:40:26;;;;;;;;;;;;;;;19.64;61.96;95344.88;5051968;28;20361;-34
2022/11/18 03:42:55;;;;;;;;;;;;;;;19.57;62.45;95347.44;5051978;28;19908;-35
2022/11/18 03:45:24;;;;;;;;;;;;;;;19.53;62.59;95352.47;5051703;28;19920;-35
2022/11/18 03:47:53;;;;;;;;;;;;;;;19.56;62.47;95349.44;5051874;28;19919;-35
2022/11/18 03:50:25;;;;;;;;;;;;;;;19.47;62.77;95346.22;5052039;28;19958;-35
2022/11/18 03:52:52;;;;;;;;;;;;;;;19.49;63.05;95344.50;5051683;28;19916;-36
2022/11/18 03:55:19;;;;;;;;;;;;;;;19.58;62.40;95357.91;5051590;28;19920;-35
2022/11/18 03:57:49;;;;;;;;;;;;;;;19.55;62.72;95372.69;5154533;27;20003;-35
2022/11/18 04:00:15;;;;;;;;;;;;;;;19.55;62.60;95366.44;5155554;27;20393;-34
2022/11/18 04:02:41;;;;;;;;;;;;;;;19.57;62.88;95369.44;5155576;27;20048;-36
2022/11/18 04:05:08;;;;;;;;;;;;;;;19.52;62.63;95368.22;5155506;27;19942;-35
2022/11/18 04:07:52;;;;;;;;;;;;;;;19.55;62.71;95356.19;5155648;27;19959;-36
2022/11/18 04:10:18;;;;;;;;;;;;;;;19.55;62.55;95358.94;5155312;27;20388;-37
2022/11/18 04:12:48;;;;;;;;;;;;;;;19.52;62.73;95357.22;5155452;27;19952;-35
2022/11/18 04:15:14;;;;;;;;;;;;;;;19.52;62.84;95348.97;5155329;27;19946;-35
2022/11/18 04:17:41;;;;;;;;;;;;;;;19.57;62.60;95328.16;5155578;27;19915;-35
2022/11/18 04:20:11;;;;;;;;;;;;;;;19.62;62.52;95328.13;5155290;27;19929;-36
2022/11/18 04:22:37;;;;;;;;;;;;;;;19.51;62.76;95317.22;5155680;27;19907;-36
2022/11/18 04:25:02;;;;;;;;;;;;;;;19.60;62.48;95319.66;5154683;27;19915;-36
2022/11/18 04:27:27;;;;;;;;;;;;;;;19.52;62.92;95313.22;5155194;27;19960;-35
2022/11/18 04:29:52;;;;;;;;;;;;;;;19.48;63.07;95301.72;5155218;27;19906;-35
2022/11/18 04:32:18;;;;;;;;;;;;;;;19.41;63.40;95320.78;5155593;27;19911;-35
2022/11/18 04:34:43;;;;;;;;;;;;;;;19.46;63.06;95311.72;5154906;27;20453;-35
2022/11/18 04:37:08;;;;;;;;;;;;;;;19.41;63.59;95321.50;5155167;27;19918;-35
2022/11/18 04:39:34;;;;;;;;;;;;;;;19.44;63.27;95319.75;5155377;27;20007;-37
2022/11/18 04:41:59;;;;;;;;;;;;;;;19.36;63.79;95308.56;5156709;27;19914;-35
2022/11/18 04:44:25;;;;;;;;;;;;;;;19.46;63.23;95315.22;5159298;27;19911;-32
2022/11/18 04:46:51;;;;;;;;;;;;;;;19.46;63.41;95304.22;5159158;27;19913;-30
2022/11/18 04:49:16;;;;;;;;;;;;;;;19.46;63.14;95295.97;5159127;27;20292;-33
2022/11/18 04:51:42;;;;;;;;;;;;;;;19.51;62.78;95308.25;5159121;27;19907;-32
2022/11/18 04:54:08;;;;;;;;;;;;;;;19.52;63.04;95304.97;5158942;27;19999;-30
2022/11/18 04:56:34;;;;;;;;;;;;;;;19.54;63.00;95307.19;5158774;27;20367;-30
2022/11/18 04:59:00;;;;;;;;;;;;;;;19.51;63.14;95308.97;5158919;27;19918;-30
2022/11/18 05:01:25;;;;;;;;;;;;;;;19.52;63.05;95307.72;5158964;27;19921;-31
2022/11/18 05:03:51;;;;;;;;;;;;;;;19.47;63.28;95315.97;5159098;27;19907;-30
2022/11/18 05:06:16;;;;;;;;;;;;;;;19.52;63.09;95326.97;5158922;27;20384;-30
2022/11/18 05:08:42;;;;;;;;;;;;;;;19.51;62.83;95328.22;5158710;27;19956;-30
2022/11/18 05:13:51;;;;;;;;;;;;;;;19.48;62.66;95309.22;5158698;27;19949;-30
2022/11/18 05:16:17;;;;;;;;;;;;;;;19.48;62.95;95303.72;5158409;27;19942;-30
2022/11/18 05:18:42;;;;;;;;;;;;;;;19.46;62.96;95304.22;5158451;27;19907;-31
2022/11/18 05:21:08;;;;;;;;;;;;;;;19.49;63.05;95311.50;5158665;27;19907;-31
2022/11/18 05:23:33;;;;;;;;;;;;;;;19.53;62.77;95311.97;5158264;27;19915;-31
2022/11/18 05:26:06;;;;;;;;;;;;;;;19.52;62.79;95313.22;5158289;27;20393;-30
2022/11/18 05:28:31;;;;;;;;;;;;;;;19.51;62.88;95306.22;5158312;27;20285;-31
2022/11/18 05:30:56;;;;;;;;;;;;;;;19.53;62.74;95303.72;5158215;27;19907;-30
2022/11/18 05:33:22;;;;;;;;;;;;;;;19.48;62.82;95301.72;5158328;27;20376;-31
2022/11/18 05:35:47;;;;;;;;;;;;;;;19.48;62.94;95295.47;5158231;27;20435;-32
2022/11/18 05:38:12;;;;;;;;;;;;;;;19.48;62.94;95296.22;5157939;27;19918;-30
2022/11/18 05:40:38;;;;;;;;;;;;;;;19.46;63.21;95287.00;5143470;27;19960;-30
2022/11/18 05:43:12;;;;;;;;;;;;;;;19.47;63.14;95289.22;5137247;27;19914;-30
2022/11/18 05:45:42;;;;;;;;;;;;;;;19.51;62.80;95300.72;5137473;27;19914;-31
2022/11/18 05:48:08;;;;;;;;;;;;;;;19.51;62.85;95295.22;5137454;27;19915;-30
2022/11/18 05:50:34;;;;;;;;;;;;;;;19.51;62.75;95300.72;5137242;27;19907;-30
2022/11/18 05:53:00;;;;;;;;;;;;;;;19.46;63.10;95295.97;5136647;27;20006;-30
2022/11/18 05:55:28;;;;;;;;;;;;;;;19.40;63.23;95292.56;5137182;27;20002;-30
2022/11/18 05:57:54;;;;;;;;;;;;;;;19.46;63.15;95290.47;5137062;27;19997;-31
2022/11/18 06:00:20;;;;;;;;;;;;;;;19.43;62.95;95294.25;5136814;27;19953;-31
2022/11/18 06:02:47;;;;;;;;;;;;;;;19.50;63.06;95293.75;5136963;27;20420;-30
2022/11/18 06:05:12;;;;;;;;;;;;;;;19.49;62.74;95283.25;5136804;27;19907;-30
2022/11/18 06:07:42;;;;;;;;;;;;;;;19.47;62.69;95272.72;5136625;27;19914;-34
2022/11/18 06:10:09;;;;;;;;;;;;;;;19.46;62.98;95282.25;5136683;27;19914;-31
2022/11/18 06:12:36;;;;;;;;;;;;;;;19.46;63.17;95268.50;5136636;27;19919;-31
2022/11/18 06:15:05;;;;;;;;;;;;;;;19.44;63.23;95275.75;5136690;27;20003;-30
2022/11/18 06:17:38;;;;;;;;;;;;;;;19.43;63.17;95269.50;5136826;27;19971;-30
2022/11/18 06:20:03;;;;;;;;;;;;;;;19.41;63.40;95274.06;5136518;27;19907;-30
2022/11/18 06:22:29;;;;;;;;;;;;;;;19.42;63.29;95262.50;5136573;27;19907;-31
2022/11/18 06:24:54;;;;;;;;;;;;;;;19.44;63.04;95268.25;5136164;27;19979;-31
2022/11/18 06:27:20;;;;;;;;;;;;;;;19.48;62.94;95278.97;5136416;27;19963;-31
2022/11/18 06:29:45;;;;;;;;;;;;;;;19.47;62.94;95293.97;5136335;27;19975;-30
2022/11/18 06:32:10;;;;;;;;;;;;;;;19.37;63.26;95282.56;5136321;27;19946;-31
2022/11/18 06:34:36;;;;;;;;;;;;;;;19.40;63.15;95284.31;5148762;27;20327;-32
2022/11/18 06:37:11;;;;;;;;;;;;;;;19.35;63.31;95294.06;5157128;27;19928;-30
2022/11/18 06:39:36;;;;;;;;;;;;;;;19.45;62.89;95297.25;5133859;27;20359;-30
2022/11/18 06:42:01;;;;;;;;;;;;;;;19.45;62.98;95302.75;5129324;27;19933;-30
2022/11/18 06:44:27;;;;;;;;;;;;;;;19.40;63.07;95300.78;5129291;27;19940;-30
2022/11/18 06:46:54;;;;;;;;;;;;;;;19.47;62.85;95311.22;5129623;27;19922;-30
2022/11/18 06:49:20;;;;;;;;;;;;;;;19.46;63.16;95306.25;5129890;27;20031;-31
2022/11/18 06:51:45;;;;;;;;;;;;;;;19.38;63.09;95297.81;5109833;27;19940;-30
2022/11/18 06:54:10;;;;;;;;;;;;;;;19.37;63.17;95308.06;5120289;27;19923;-32
2022/11/18 06:56:36;;;;;;;;;;;;;;;19.43;63.03;95296.25;5120697;27;20303;-29
2022/11/18 06:59:02;;;;;;;;;;;;;;;19.40;63.15;95300.78;5145728;27;20385;-28
2022/11/18 07:01:28;;;;;;;;;;;;;;;19.43;62.86;95307.25;5156745;27;20392;-28
2022/11/18 07:03:54;;;;;;;;;;;;;;;19.38;63.00;95309.56;5155879;27;19913;-29
2022/11/18 07:06:21;;;;;;;;;;;;;;;19.42;63.03;95309.25;5156309;27;19911;-29
2022/11/18 07:08:46;;;;;;;;;;;;;;;19.44;62.92;95311.50;5156313;27;20278;-29
2022/11/18 07:11:13;;;;;;;;;;;;;;;19.37;63.08;95307.31;5156457;27;19906;-30
2022/11/18 07:13:39;;;;;;;;;;;;;;;19.40;63.14;95305.53;5156183;27;20366;-29
2022/11/18 07:16:08;;;;;;;;;;;;;;;19.36;63.13;95311.31;5156231;27;19954;-28
2022/11/18 07:18:36;;;;;;;;;;;;;;;19.34;63.21;95311.06;5156084;27;19949;-29
2022/11/18 07:21:02;;;;;;;;;;;;;;;19.41;62.95;95313.25;5156380;27;19906;-28
2022/11/18 07:23:28;;;;;;;;;;;;;;;19.46;62.90;95319.97;5155796;27;19914;-29
2022/11/18 07:25:54;;;;;;;;;;;;;;;19.41;62.97;95316.00;5156165;27;19914;-32
2022/11/18 07:28:19;;;;;;;;;;;;;;;19.40;62.95;95320.03;5155905;27;19911;-28
2022/11/18 07:30:45;;;;;;;;;;;;;;;19.44;62.94;95331.50;5156194;27;20350;-28
2022/11/18 07:33:10;;;;;;;;;;;;;;;19.47;62.49;95324.97;5149227;27;19994;-29
2022/11/18 07:35:35;;;;;;;;;;;;;;;19.47;62.88;95327.72;5134616;27;19911;-30
2022/11/18 07:38:01;;;;;;;;;;;;;;;19.39;63.09;95324.03;5138395;27;19946;-30
2022/11/18 07:40:26;;;;;;;;;;;;;;;19.43;62.77;95348.50;5153965;27;19907;-28
2022/11/18 07:42:52;;;;;;;;;;;;;;;19.36;63.14;95339.56;5150735;27;19956;-29
2022/11/18 07:45:17;;;;;;;;;;;;;;;19.40;63.10;95349.53;5153557;27;19964;-29
2022/11/18 07:47:42;;;;;;;;;;;;;;;19.49;62.59;95363.00;5153845;27;19907;-30
2022/11/18 07:50:08;;;;;;;;;;;;;;;19.52;62.51;95368.22;5130482;27;20339;-29
2022/11/18 07:52:33;;;;;;;;;;;;;;;19.33;63.36;95354.31;5132747;27;19915;-29
2022/11/18 07:54:58;;;;;;;;;;;;;;;19.30;63.42;95360.06;5132834;27;19923;-29
2022/11/18 07:57:24;;;;;;;;;;;;;;;19.36;63.05;95367.03;5132520;27;19911;-29
2022/11/18 07:59:49;;;;;;;;;;;;;;;19.43;63.05;95365.00;5146156;27;19919;-28
2022/11/18 08:02:14;;;;;;;;;;;;;;;19.43;62.96;95373.25;5153120;27;19918;-28
2022/11/18 08:04:41;;;;;;;;;;;;;;;19.43;62.91;95371.25;5150228;27;20039;-29
2022/11/18 08:07:09;;;;;;;;;;;;;;;19.47;62.65;95373.72;5132994;28;20425;-29
2022/11/18 08:09:35;;;;;;;;;;;;;;;19.43;62.96;95382.25;5132524;28;19911;-28
2022/11/18 08:12:00;;;;;;;;;;;;;;;19.43;62.74;95387.00;5130771;28;19911;-29
2022/11/18 08:14:26;;;;;;;;;;;;;;;19.41;62.89;95395.03;5132810;28;19911;-29
2022/11/18 08:16:51;;;;;;;;;;;;;;;19.40;62.96;95383.28;5137609;27;19908;-29
2022/11/18 08:19:16;;;;;;;;;;;;;;;19.46;62.58;95385.97;5154396;27;19986;-29
2022/11/18 08:21:41;;;;;;;;;;;;;;;19.49;62.42;95377.50;5157045;27;19937;-28
2022/11/18 08:24:08;;;;;;;;;;;;;;;19.46;62.72;95378.47;5157358;27;20055;-29
2022/11/18 08:26:34;;;;;;;;;;;;;;;19.44;62.85;95374.72;5157553;27;19911;-29
2022/11/18 08:28:59;;;;;;;;;;;;;;;19.33;63.05;95372.81;5157579;27;20015;-28
2022/11/18 08:31:26;;;;;;;;;;;;;;;19.44;62.55;95372.72;5156697;27;19911;-28
2022/11/18 08:34:02;;;;;;;;;;;;;;;19.33;62.97;95370.81;5157357;27;19918;-29
2022/11/18 08:36:29;;;;;;;;;;;;;;;19.34;63.03;95360.56;5157313;27;20002;-30
2022/11/18 08:38:55;;;;;;;;;;;;;;;19.41;62.78;95371.00;5157289;27;19914;-29
2022/11/18 08:41:25;;;;;;;;;;;;;;;19.42;62.62;95378.00;5157330;27;19915;-28
2022/11/18 08:43:51;;;;;;;;;;;;;;;18.59;66.99;95379.91;5156517;27;19958;-29
2022/11/18 08:46:16;;;;;;;;;;;;;;;18.45;68.24;95388.41;5156376;27;19911;-31
2022/11/18 08:48:41;;;;;;;;;;;;;;;18.27;68.93;95387.69;5136937;27;19967;-28
2022/11/18 08:51:09;;;;;;;;;;;;;;;18.83;66.42;95376.56;5156633;27;19911;-28
2022/11/18 08:53:34;;;;;;;;;;;;;;;19.20;64.63;95383.63;5156693;27;19949;-28
2022/11/18 08:56:00;;;;;;;;;;;;;;;19.24;64.24;95382.13;5156300;27;19954;-28
2022/11/18 08:58:25;;;;;;;;;;;;;;;19.34;63.63;95383.31;5156634;27;19914;-28
2022/11/18 09:00:51;;;;;;;;;;;;;;;19.37;63.19;95389.78;5156857;27;19907;-29
2022/11/18 09:03:16;;;;;;;;;;;;;;;19.21;63.98;95382.38;5156780;27;19932;-28
2022/11/18 09:05:42;;;;;;;;;;;;;;;19.35;63.57;95378.56;5138304;27;19903;-28
2022/11/18 09:08:07;;;;;;;;;;;;;;;19.31;63.57;95381.56;5156357;27;19907;-28
2022/11/18 09:10:33;;;;;;;;;;;;;;;19.29;63.48;95384.06;5156735;27;19914;-28
2022/11/18 09:12:59;;;;;;;;;;;;;;;19.28;63.79;95381.84;5155076;27;20319;-28
2022/11/18 09:15:25;;;;;;;;;;;;;;;19.36;63.10;95391.03;5156524;27;19915;-28
2022/11/18 09:17:51;;;;;;;;;;;;;;;19.43;62.93;95387.72;5156587;27;20373;-28
2022/11/18 09:20:16;;;;;;;;;;;;;;;19.43;62.87;95398.00;5134390;27;19965;-28
2022/11/18 09:22:41;;;;;;;;;;;;;;;19.31;63.44;95406.31;5145929;27;19907;-28
2022/11/18 09:25:07;;;;;;;;;;;;;;;19.32;63.19;95387.81;5158501;27;19914;-28
2022/11/18 09:27:32;;;;;;;;;;;;;;;19.37;62.83;95389.78;5157326;27;19907;-28
2022/11/18 09:29:58;;;;;;;;;;;;;;;19.42;62.58;95385.50;5158262;27;20360;-29
2022/11/18 09:32:23;;;;;;;;;;;;;;;19.41;62.41;95395.03;5158232;27;19911;-28
2022/11/18 09:34:48;;;;;;;;;;;;;;;19.28;62.90;95406.59;5158059;27;19987;-28
2022/11/18 09:37:14;;;;;;;;;;;;;;;19.41;62.44;95411.53;5157653;27;19907;-28
2022/11/18 09:39:39;;;;;;;;;;;;;;;19.40;62.26;95399.78;5158090;27;19910;-28
2022/11/18 09:42:23;;;;;;;;;;;;;;;19.42;62.31;95419.22;5158128;27;20376;-28
2022/11/18 09:44:57;;;;;;;;;;;;;;;19.43;62.13;95404.22;5157796;27;20355;-30
2022/11/18 09:47:30;;;;;;;;;;;;;;;19.34;62.27;95408.03;5157977;27;19907;-30
2022/11/18 09:49:59;;;;;;;;;;;;;;;19.28;62.49;95415.59;5143624;27;19908;-29
2022/11/18 09:52:44;;;;;;;;;;;;;;;19.17;62.79;95420.38;5137178;27;19953;-28
2022/11/18 09:55:14;;;;;;;;;;;;;;;18.84;63.62;95415.78;5118488;27;19912;-28
2022/11/18 09:57:42;;;;;;;;;;;;;;;19.12;62.85;95421.16;5136844;27;19911;-29
2022/11/18 10:00:24;;;;;;;;;;;;;;;19.25;62.32;95427.59;5136932;27;20039;-28
2022/11/18 10:02:55;;;;;;;;;;;;;;;19.19;62.21;95420.63;5136930;27;19963;-28
2022/11/18 10:05:22;;;;;;;;;;;;;;;18.57;63.88;95431.03;5136696;27;20499;-28
2022/11/18 10:08:03;;;;;;;;;;;;;;;18.73;63.65;95422.06;5137048;27;19911;-28
2022/11/18 10:10:38;;;;;;;;;;;;;;;18.86;62.97;95430.50;5136657;27;19907;-28
2022/11/18 10:13:11;;;;;;;;;;;;;;;19.12;62.29;95429.41;5136644;27;19907;-28
2022/11/18 10:15:45;;;;;;;;;;;;;;;18.84;62.55;95432.25;5136556;27;20286;-29
2022/11/18 10:18:19;;;;;;;;;;;;;;;18.82;61.80;95430.00;5136460;27;19946;-28
2022/11/18 10:20:58;;;;;;;;;;;;;;;18.49;63.91;95419.09;5137041;27;19907;-28
2022/11/18 10:23:24;;;;;;;;;;;;;;;18.24;64.30;95423.63;5136492;27;19922;-28
2022/11/18 10:25:51;;;;;;;;;;;;;;;18.80;63.10;95427.00;5137017;27;19911;-30
2022/11/18 10:28:30;;;;;;;;;;;;;;;19.10;61.79;95431.91;5136445;27;19911;-28
2022/11/18 10:31:06;;;;;;;;;;;;;;;19.12;61.68;95443.88;5136478;27;19914;-28
2022/11/18 10:33:31;;;;;;;;;;;;;;;19.06;61.73;95429.41;5150566;27;19907;-29
2022/11/18 10:36:18;;;;;;;;;;;;;;;18.99;61.79;95441.69;5156873;27;19917;-28
2022/11/18 10:38:44;;;;;;;;;;;;;;;18.41;62.73;95442.81;5156750;27;19944;-28
2022/11/18 10:41:12;;;;;;;;;;;;;;;18.56;62.78;95446.03;5156922;27;20261;-27
2022/11/18 10:43:40;;;;;;;;;;;;;;;18.36;62.21;95449.81;5156948;27;19911;-29
2022/11/18 10:46:16;;;;;;;;;;;;;;;18.67;61.98;95446.03;5157235;27;19997;-28
2022/11/18 10:48:42;;;;;;;;;;;;;;;18.76;61.07;95450.50;5156907;27;19907;-28
2022/11/18 10:51:21;;;;;;;;;;;;;;;18.58;60.66;95438.81;5156766;27;19907;-28
2022/11/18 10:53:46;;;;;;;;;;;;;;;18.45;62.51;95444.06;5156619;27;19907;-28
2022/11/18 10:56:14;;;;;;;;;;;;;;;18.51;62.34;95442.06;5156301;27;20005;-28
2022/11/18 10:58:41;;;;;;;;;;;;;;;18.62;61.39;95433.81;5156607;27;20402;-28
2022/11/18 11:01:27;;;;;;;;;;;;;;;18.50;59.74;95432.31;5156506;27;20362;-28
2022/11/18 11:04:22;;;;;;;;;;;;;;;18.27;60.64;95426.13;5155922;27;20358;-28
2022/11/18 11:06:47;;;;;;;;;;;;;;;18.58;59.00;95408.59;5156361;27;19907;-30
2022/11/18 11:09:12;;;;;;;;;;;;;;;18.18;61.15;95418.13;5156418;27;19907;-28
2022/11/18 11:11:39;;;;;;;;;;;;;;;18.58;61.26;95408.59;5156521;27;20005;-28
2022/11/18 11:14:19;;;;;;;;;;;;;;;18.20;60.96;95423.88;5156382;27;19907;-28
2022/11/18 11:16:56;;;;;;;;;;;;;;;18.43;61.08;95429.31;5156143;27;19918;-28
2022/11/18 11:19:24;;;;;;;;;;;;;;;18.81;59.86;95423.00;5156430;27;19907;-28
2022/11/18 11:21:50;;;;;;;;;;;;;;;18.69;59.35;95410.56;5149181;27;20385;-28
2022/11/18 11:24:15;;;;;;;;;;;;;;;18.47;59.67;95416.09;5132923;27;20644;-28
2022/11/18 11:26:41;;;;;;;;;;;;;;;18.66;60.33;95417.09;5134448;27;19922;-28
2022/11/18 11:29:09;;;;;;;;;;;;;;;18.84;59.80;95421.25;5116968;27;19900;-28
2022/11/18 11:31:42;;;;;;;;;;;;;;;18.56;59.72;95432.28;5135210;27;19922;-28
2022/11/18 11:34:17;;;;;;;;;;;;;;;18.66;58.54;95425.34;5134989;27;20355;-29
2022/11/18 11:37:01;;;;;;;;;;;;;;;18.90;58.88;95425.50;5135526;27;19915;-28
2022/11/18 11:39:30;;;;;;;;;;;;;;;18.90;57.84;95430.25;5135436;27;19946;-28
2022/11/18 11:42:04;;;;;;;;;;;;;;;18.96;57.53;95428.22;5119048;27;19913;-28
2022/11/18 11:44:30;;;;;;;;;;;;;;;18.88;57.99;95421.75;5155967;27;19910;-30
2022/11/18 11:50:17;;;;;;;;;;;;;;;18.76;58.60;95421.06;5155296;27;19950;-29
2022/11/18 11:52:46;;;;;;;;;;;;;;;18.55;58.82;95422.56;5155077;27;20374;-30
2022/11/18 11:55:23;;;;;;;;;;;;;;;18.64;59.43;95412.09;5154566;27;19911;-31
2022/11/18 11:57:59;;;;;;;;;;;;;;;18.42;58.29;95419.63;5155596;27;19953;-29
2022/11/18 12:00:27;;;;;;;;;;;;;;;18.60;59.17;95413.59;5154139;27;20350;-28
2022/11/18 12:02:55;;;;;;;;;;;;;;;18.81;58.83;95420.28;5132774;27;20347;-29
2022/11/18 12:05:25;;;;;;;;;;;;;;;18.49;60.49;95446.53;5132849;27;19921;-29
2022/11/18 12:07:53;;;;;;;;;;;;;;;17.99;61.31;95433.63;5133037;27;19911;-28
2022/11/18 12:10:29;;;;;;;;;;;;;;;18.79;59.41;95436.50;5132805;27;20002;-32
2022/11/18 12:12:55;;;;;;;;;;;;;;;18.70;59.63;95423.06;5135877;27;19907;-29
2022/11/18 12:15:26;;;;;;;;;;;;;;;18.60;60.12;95428.06;5151624;27;19921;-28
2022/11/18 12:17:57;;;;;;;;;;;;;;;18.84;59.36;95427.50;5153562;27;19965;-28
2022/11/18 12:20:34;;;;;;;;;;;;;;;18.71;59.75;95424.56;5153348;27;19963;-29
2022/11/18 12:23:19;;;;;;;;;;;;;;;18.84;59.32;95419.25;5153159;27;19948;-29
2022/11/18 12:25:57;;;;;;;;;;;;;;;18.69;59.44;95424.31;5153095;27;19918;-28
2022/11/18 12:28:29;;;;;;;;;;;;;;;18.84;59.17;95435.00;5153214;27;19922;-28
2022/11/18 12:31:12;;;;;;;;;;;;;;;19.06;58.67;95436.91;5153495;27;19956;-29
2022/11/18 12:33:45;;;;;;;;;;;;;;;18.83;59.33;95431.50;5153304;27;19921;-29
2022/11/18 12:36:26;;;;;;;;;;;;;;;18.90;57.96;95435.75;5153203;27;19965;-28
2022/11/18 12:38:51;;;;;;;;;;;;;;;18.97;58.47;95444.19;5150280;27;19911;-28
2022/11/18 12:44:25;;;;;;;;;;;;;;;18.66;58.58;95450.03;5150260;27;19961;-28
2022/11/18 12:46:51;;;;;;;;;;;;;;;18.77;58.53;95449.25;5136024;27;20278;-28
2022/11/18 12:49:25;;;;;;;;;;;;;;;18.99;57.44;95444.44;5155421;27;19907;-28
2022/11/18 12:51:51;;;;;;;;;;;;;;;19.23;57.08;95451.34;5150385;27;19918;-28
2022/11/18 12:54:27;;;;;;;;;;;;;;;19.23;57.08;95457.59;5143773;27;19907;-29
2022/11/18 12:56:53;;;;;;;;;;;;;;;19.32;56.86;95462.78;5153206;27;19911;-28
2022/11/18 12:59:25;;;;;;;;;;;;;;;19.37;56.66;95456.53;5114466;28;20368;-28
2022/11/18 13:02:00;;;;;;;;;;;;;;;19.29;56.85;95450.03;5132370;27;19907;-28
2022/11/18 13:04:25;;;;;;;;;;;;;;;19.36;56.58;95454.28;5136049;27;19948;-29
2022/11/18 13:06:53;;;;;;;;;;;;;;;19.37;56.60;95450.28;5136130;27;20401;-28
2022/11/18 13:09:25;;;;;;;;;;;;;;;19.20;57.04;95455.09;5136203;27;20401;-28
2022/11/18 13:12:01;;;;;;;;;;;;;;;19.34;56.66;95445.78;5136050;27;19912;-29